Weather History for Hereford, TX

Change the Weather History Date:

Sunday, March 10, 2013

  Actual Average (KAMA) Record (KAMA)
Temperature  
Mean Temperature 35 °F 46 °F  
Max Temperature 45 °F 61 °F 90 °F (1989)
Min Temperature 24 °F 32 °F -2 °F (1948)
Degree Days  
Heating Degree Days 30 19  
Month to date heating degree days 200  
Since 1 July heating degree days 3477  
Cooling Degree Days 0 0  
Month to date cooling degree days 0  
Year to date cooling degree days 0  
Moisture  
Dew Point 16 °F    
Average Humidity 46    
Maximum Humidity 76    
Minimum Humidity 23    
Precipitation  
Precipitation 0.00 in 0.05 in 1.20 in (1973)
Month to date precipitation 0.36  
Year to date precipitation 1.64  
Snow  
Snow 0.00 in 0.10 in 2.40 in (1968)
Month to date snowfall 0.9  
Since 1 July snowfall 14.9  
Snow Depth -    
Sea Level Pressure  
Sea Level Pressure 30.05 in    
Wind  
Wind Speed 25 mph (NNW)    
Max Wind Speed 39 mph    
Max Gust Speed 48 mph    
Visibility 10 miles    
Events      
T = Trace of Precipitation, MM = Missing Value Source: NWS Daily Summary

Daily Weather History Graph

Daily Weather History Graph

Search for Another Location

Airport:

Trip Planner

Search our weather history database for the weather conditions in past years. The results will help you decide how hot, cold, wet, or windy it might be!

Date:

Astronomy

Mar. 10, 2013 Rise Set
Actual Time 8:06 AM CDT 7:53 PM CDT
Civil Twilight 7:41 AM CDT 8:18 PM CDT
Nautical Twilight 7:11 AM CDT 8:47 PM CDT
Astronomical Twilight 6:42 AM CDT 9:17 PM CDT
Moon 7:06 AM CDT (3/10) 7:03 PM CDT (3/10)
Length of Visible Light 12h 37m
Length of Day
11h 46m
Waning Crescent, 2% of the Moon is Illuminated
Mar 10
Waning Crescent
Mar 11
New
Mar 19
First Quarter
Mar 27
Full
Apr 2
Last Quarter

Hourly Weather History & Observations

Time (CDT) Temp. Windchill Dew Point Humidity Pressure Visibility Wind Dir Wind Speed Gust Speed Precip Events Conditions
12:15 AM 35.8 °F 25.4 °F 27.5 °F 72% 29.90 in 10.0 mi NNW 18.4 mph 27.6 mph N/A   Clear
12:35 AM 36.5 °F 27.0 °F 28.2 °F 72% 29.91 in 10.0 mi North 16.1 mph 23.0 mph N/A   Mostly Cloudy
12:55 AM 36.9 °F 24.7 °F 29.3 °F 74% 29.91 in 10.0 mi North 27.6 mph 35.7 mph N/A   Overcast
1:15 AM 35.1 °F 21.4 °F 28.0 °F 76% 29.91 in 10.0 mi North 32.2 mph 41.4 mph N/A   Scattered Clouds
1:35 AM 35.6 °F 21.5 °F 26.8 °F 70% 29.90 in 10.0 mi North 35.7 mph 44.9 mph N/A   Mostly Cloudy
1:55 AM 36.0 °F 23.0 °F 26.1 °F 67% 29.91 in 10.0 mi North 29.9 mph 42.6 mph N/A   Scattered Clouds
3:15 AM 36.1 °F 23.3 °F 27.0 °F 69% 29.94 in 10.0 mi North 29.9 mph 41.4 mph N/A   Mostly Cloudy
3:35 AM 36.0 °F 23.7 °F 26.8 °F 69% 29.94 in 10.0 mi North 26.5 mph 34.5 mph N/A   Mostly Cloudy
3:55 AM 36.0 °F 22.2 °F 24.1 °F 62% 29.92 in 10.0 mi North 34.5 mph 42.6 mph N/A   Scattered Clouds
4:15 AM 35.1 °F 21.8 °F 21.9 °F 59% 29.94 in 10.0 mi North 29.9 mph 43.7 mph N/A   Clear
4:35 AM 34.2 °F 20.8 °F 22.1 °F 61% 29.96 in 10.0 mi North 28.8 mph 39.1 mph N/A   Clear
4:55 AM 33.4 °F 19.8 °F 22.1 °F 63% 29.96 in 10.0 mi North 28.8 mph 33.4 mph N/A   Clear
5:15 AM 33.1 °F 18.9 °F 22.3 °F 65% 29.97 in 10.0 mi North 31.1 mph 42.6 mph N/A   Clear
5:35 AM 32.9 °F 19.1 °F 21.6 °F 63% 29.99 in 10.0 mi North 28.8 mph 40.3 mph N/A   Clear
5:55 AM 32.0 °F 18.4 °F 19.9 °F 61% 30.00 in 10.0 mi North 26.5 mph 35.7 mph N/A   Clear
6:15 AM 32.0 °F 19.5 °F 20.3 °F 62% 30.01 in 10.0 mi NNW 21.9 mph 33.4 mph N/A   Clear
7:35 AM 31.1 °F 18.0 °F 17.6 °F 57% 30.03 in 10.0 mi North 23.0 mph 28.8 mph N/A   Clear
7:55 AM 30.2 °F 18.5 °F 18.0 °F 60% 30.05 in 10.0 mi NNW 17.3 mph - N/A   Clear
8:15 AM 29.8 °F 18.0 °F 18.3 °F 62% 30.05 in 10.0 mi NNW 17.3 mph 23.0 mph N/A   Clear
8:35 AM 30.2 °F 18.1 °F 18.3 °F 61% 30.06 in 10.0 mi NNW 18.4 mph 25.3 mph N/A   Clear
8:55 AM 31.5 °F 18.5 °F 18.5 °F 59% 30.06 in 10.0 mi NNW 23.0 mph 28.8 mph N/A   Clear
9:15 AM 32.2 °F 19.1 °F 18.1 °F 56% 30.08 in 10.0 mi NNW 24.2 mph 33.4 mph N/A   Clear
9:35 AM 33.3 °F 20.1 °F 17.4 °F 52% 30.09 in 10.0 mi North 26.5 mph 40.3 mph N/A   Clear
9:55 AM 34.2 °F 20.3 °F 16.7 °F 49% 30.09 in 10.0 mi North 31.1 mph 38.0 mph N/A   Clear
10:15 AM 35.1 °F 21.4 °F 16.5 °F 47% 30.09 in 10.0 mi North 32.2 mph 40.3 mph N/A   Clear
10:35 AM 36.1 °F 24.2 °F 17.4 °F 47% 30.10 in 10.0 mi North 25.3 mph 40.3 mph N/A   Clear
10:55 AM 37.0 °F 24.3 °F 17.1 °F 44% 30.10 in 10.0 mi North 31.1 mph 39.1 mph N/A   Clear
11:15 AM 37.9 °F 25.3 °F 15.1 °F 39% 30.10 in 10.0 mi North 32.2 mph 41.4 mph N/A   Clear
11:35 AM 38.5 °F 26.4 °F 15.1 °F 39% 30.10 in 10.0 mi North 29.9 mph 42.6 mph N/A   Clear
11:55 AM 39.6 °F 26.8 °F 13.6 °F 35% 30.10 in 10.0 mi North 36.8 mph 43.7 mph N/A   Clear
12:15 PM 40.5 °F 28.9 °F 13.8 °F 34% 30.10 in 10.0 mi North 31.1 mph 43.7 mph N/A   Clear
12:35 PM 41.7 °F 30.1 °F 14.9 °F 34% 30.10 in 10.0 mi NNW 34.5 mph 40.3 mph N/A   Scattered Clouds
12:55 PM 41.9 °F 30.2 °F 14.2 °F 33% 30.09 in 10.0 mi North 35.7 mph 47.2 mph N/A   Scattered Clouds
1:15 PM 41.7 °F 29.5 °F 14.4 °F 33% 30.09 in 10.0 mi North 39.1 mph 48.3 mph N/A   Scattered Clouds
1:35 PM 42.4 °F 31.4 °F 15.4 °F 34% 30.08 in 10.0 mi North 32.2 mph 47.2 mph N/A   Scattered Clouds
1:55 PM 42.8 °F 31.9 °F 14.9 °F 32% 30.08 in 10.0 mi North 32.2 mph 47.2 mph N/A   Scattered Clouds
2:15 PM 43.5 °F 32.4 °F 15.1 °F 32% 30.07 in 10.0 mi North 35.7 mph 47.2 mph N/A   Scattered Clouds
2:35 PM 43.5 °F 33.1 °F 14.9 °F 32% 30.06 in 10.0 mi NNW 31.1 mph 43.7 mph N/A   Scattered Clouds
2:55 PM 44.6 °F 34.6 °F 14.5 °F 30% 30.05 in 10.0 mi North 31.1 mph 42.6 mph N/A   Scattered Clouds
3:15 PM 45.3 °F 35.1 °F 14.2 °F 29% 30.04 in 10.0 mi North 34.5 mph 41.4 mph N/A   Scattered Clouds
3:35 PM 45.3 °F 35.5 °F 15.1 °F 30% 30.04 in 10.0 mi NNW 31.1 mph 39.1 mph N/A   Mostly Cloudy
3:55 PM 45.1 °F 35.8 °F 13.5 °F 28% 30.04 in 10.0 mi NNW 27.6 mph 40.3 mph N/A   Mostly Cloudy
4:15 PM 45.5 °F 35.5 °F 10.9 °F 25% 30.04 in 10.0 mi NNW 33.4 mph 41.4 mph N/A   Mostly Cloudy
4:35 PM 45.5 °F 36.0 °F 10.8 °F 24% 30.04 in 10.0 mi NNW 29.9 mph 46.0 mph N/A   Mostly Cloudy
4:55 PM 45.3 °F 34.8 °F 9.1 °F 23% 30.04 in 10.0 mi North 36.8 mph 44.9 mph N/A   Mostly Cloudy
5:15 PM 45.5 °F 36.3 °F 9.5 °F 23% 30.04 in 10.0 mi North 27.6 mph 40.3 mph N/A   Scattered Clouds
5:35 PM 45.3 °F 35.9 °F 10.2 °F 24% 30.04 in 10.0 mi North 28.8 mph 40.3 mph N/A   Scattered Clouds
5:55 PM 44.8 °F 35.3 °F 11.1 °F 26% 30.04 in 10.0 mi North 27.6 mph 38.0 mph N/A   Clear
6:15 PM 44.6 °F 35.5 °F 10.8 °F 25% 30.04 in 10.0 mi North 25.3 mph 34.5 mph N/A   Clear
6:35 PM 44.1 °F 35.2 °F 10.9 °F 26% 30.05 in 10.0 mi North 23.0 mph 33.4 mph N/A   Clear
6:55 PM 43.9 °F 35.2 °F 11.5 °F 27% 30.05 in 10.0 mi NNW 21.9 mph 31.1 mph N/A   Clear
7:15 PM 42.6 °F 35.2 °F 10.8 °F 27% 30.06 in 10.0 mi North 15.0 mph - N/A   Clear
7:35 PM 41.0 °F 32.5 °F 10.4 °F 29% 30.08 in 10.0 mi North 17.3 mph 21.9 mph N/A   Clear
7:55 PM 38.8 °F 30.0 °F 9.1 °F 29% 30.08 in 10.0 mi North 16.1 mph - N/A   Clear
8:15 PM 36.7 °F 28.4 °F 8.2 °F 31% 30.09 in 10.0 mi North 12.7 mph - N/A   Clear
8:35 PM 34.5 °F 26.7 °F 8.1 °F 33% 30.09 in 10.0 mi North 10.4 mph - N/A   Clear
8:55 PM 31.5 °F 23.5 °F 8.8 °F 39% 30.10 in 10.0 mi North 9.2 mph - N/A   Clear
9:15 PM 30.2 °F 21.9 °F 9.3 °F 42% 30.11 in 10.0 mi NNW 9.2 mph - N/A   Clear
9:35 PM 28.9 °F 20.4 °F 9.9 °F 45% 30.12 in 10.0 mi North 9.2 mph - N/A   Clear
9:55 PM 28.4 °F 19.7 °F 8.6 °F 43% 30.13 in 10.0 mi NNW 9.2 mph - N/A   Clear
10:15 PM 27.0 °F 18.0 °F 9.3 °F 48% 30.13 in 10.0 mi NNW 9.2 mph - N/A   Clear
10:35 PM 28.0 °F 19.3 °F 8.6 °F 44% 30.14 in 10.0 mi NNW 9.2 mph - N/A   Clear
10:55 PM 27.5 °F 19.3 °F 8.4 °F 45% 30.14 in 10.0 mi NNW 8.1 mph - N/A   Clear
11:15 PM 26.8 °F 18.5 °F 9.5 °F 48% 30.14 in 10.0 mi NW 8.1 mph - N/A   Clear
11:35 PM 25.5 °F 16.9 °F 10.2 °F 52% 30.14 in 10.0 mi NNW 8.1 mph - N/A   Clear
11:55 PM 25.3 °F 16.7 °F 10.9 °F 54% 30.14 in 10.0 mi North 8.1 mph - N/A   Clear
12:15 AM 27.1 °F 17.5 °F 11.5 °F 52% 30.14 in 10.0 mi NW 10.4 mph - N/A   Clear
12:35 AM 27.0 °F 18.7 °F 11.3 °F 52% 30.13 in 10.0 mi NNW 8.1 mph - N/A   Clear
12:55 AM 24.6 °F 15.8 °F 12.7 °F 61% 30.13 in 10.0 mi WNW 8.1 mph - N/A   Clear